createdAt,value
2019-04-29T01:04:31.856Z,99.90
2019-04-29T01:07:29.792Z,99.90
2019-04-29T01:10:23.323Z,99.90
2019-04-29T01:16:42.207Z,99.90
2019-04-29T01:23:36.192Z,99.90
2019-04-29T01:27:30.519Z,99.90
2019-04-29T01:31:02.057Z,99.90
2019-04-29T01:34:01.469Z,99.90
2019-04-29T01:36:48.694Z,99.90
2019-04-29T01:40:34.862Z,99.90
2019-04-29T02:06:36.593Z,99.90
2019-04-29T02:10:04.061Z,99.90
2019-04-29T02:12:35.324Z,99.90
2019-04-29T02:15:06.699Z,99.90
2019-04-29T02:17:38.787Z,99.90
2019-04-29T02:20:09.256Z,99.90
2019-04-29T02:23:02.005Z,99.90
2019-04-29T02:25:37.316Z,99.90
2019-04-29T02:28:07.821Z,99.90
2019-04-29T02:30:47.803Z,99.90
2019-04-29T02:33:18.952Z,99.90
2019-04-29T02:35:51.782Z,99.90
2019-04-29T02:38:45.875Z,99.90
2019-04-29T02:41:23.863Z,99.90
2019-04-29T02:44:01.045Z,99.90
2019-04-29T02:46:31.171Z,99.90
2019-04-29T02:49:00.891Z,99.90
2019-04-29T02:51:46.053Z,99.90
2019-04-29T02:54:16.690Z,99.90
2019-04-29T02:56:50.496Z,99.90
2019-04-29T02:59:24.125Z,99.90
2019-04-29T03:02:18.776Z,99.90
2019-04-29T03:05:07.955Z,99.90
2019-04-29T03:07:37.698Z,99.90
2019-04-29T03:10:07.155Z,99.90
2019-04-29T03:12:37.140Z,99.90
2019-04-29T03:15:06.921Z,99.90
2019-04-29T03:17:37.209Z,99.90
2019-04-29T03:20:15.954Z,99.90
2019-04-29T03:22:46.422Z,99.90
2019-04-29T03:25:16.211Z,99.90
2019-04-29T03:27:46.446Z,99.90
2019-04-29T03:30:18.081Z,99.90
2019-04-29T03:32:47.717Z,99.90
2019-04-29T03:35:17.820Z,99.90
2019-04-29T03:37:48.819Z,99.90
2019-04-29T03:40:18.597Z,99.90
2019-04-29T03:42:49.799Z,99.90
2019-04-29T03:45:19.227Z,99.90
2019-04-29T03:47:50.931Z,99.90
2019-04-29T03:50:20.387Z,99.90
2019-04-29T03:52:49.778Z,99.90
2019-04-29T03:55:37.598Z,99.90
2019-04-29T03:57:50.777Z,99.90
2019-04-29T04:00:20.149Z,99.90
2019-04-29T04:03:08.456Z,99.90
2019-04-29T04:06:03.026Z,99.90
2019-04-29T04:08:38.788Z,99.90
2019-04-29T04:11:08.757Z,99.90
2019-04-29T04:13:38.211Z,99.90
2019-04-29T04:16:10.624Z,99.90
2019-04-29T04:18:41.152Z,99.90
2019-04-29T04:21:10.482Z,99.90
2019-04-29T04:23:41.441Z,99.90
2019-04-29T04:26:11.426Z,99.90
2019-04-29T04:28:40.943Z,99.90
2019-04-29T04:31:10.351Z,99.90
2019-04-29T04:33:40.094Z,99.90
2019-04-29T04:36:10.060Z,99.90
2019-04-29T04:38:39.793Z,99.90
2019-04-29T04:41:11.396Z,99.90
2019-04-29T04:43:40.819Z,99.90
2019-04-29T04:46:10.895Z,99.90
2019-04-29T04:48:41.155Z,99.90
2019-04-29T04:51:11.061Z,99.90
2019-04-29T04:53:40.579Z,99.90
2019-04-29T04:56:10.621Z,99.90
2019-04-29T04:58:43.465Z,99.90
2019-04-29T05:01:13.556Z,99.90
2019-04-29T05:03:46.247Z,99.90
2019-04-29T05:06:16.043Z,99.90
2019-04-29T05:08:45.817Z,99.90
2019-04-29T05:11:15.590Z,99.90
2019-04-29T05:13:45.319Z,99.90
2019-04-29T05:16:14.680Z,99.90
2019-04-29T05:18:44.702Z,99.90
2019-04-29T05:21:14.838Z,99.90
2019-04-29T05:23:44.692Z,99.90
2019-04-29T05:26:15.013Z,99.90
2019-04-29T05:28:44.543Z,99.90
2019-04-29T05:31:14.589Z,99.90
2019-04-29T05:33:43.865Z,99.90
2019-04-29T05:36:38.154Z,99.90
2019-04-29T05:39:18.567Z,99.90
2019-04-29T05:41:48.009Z,99.90
2019-04-29T05:44:25.843Z,99.90
2019-04-29T05:47:17.954Z,99.90
2019-04-29T05:50:06.821Z,99.90
2019-04-29T05:52:43.068Z,99.90
2019-04-29T05:55:13.902Z,99.90
2019-04-29T05:57:46.510Z,99.90
2019-04-29T06:00:18.882Z,99.90
2019-04-29T06:02:51.256Z,99.90
2019-04-29T06:05:20.980Z,99.90
2019-04-29T06:07:56.240Z,99.90
2019-04-29T06:10:24.834Z,99.90
2019-04-29T06:12:54.632Z,99.90
2019-04-29T06:15:24.067Z,99.90
2019-04-29T06:17:56.304Z,99.90
2019-04-29T06:20:25.707Z,99.90
2019-04-29T06:23:00.434Z,99.90
2019-04-29T06:25:30.149Z,99.90
2019-04-29T06:27:59.495Z,99.90
2019-04-29T06:30:28.866Z,99.90
2019-04-29T06:32:59.019Z,99.90
2019-04-29T06:35:48.706Z,99.90
2019-04-29T06:38:10.749Z,99.90
2019-04-29T06:40:41.496Z,99.90
2019-04-29T06:43:11.408Z,99.90
2019-04-29T06:45:41.334Z,99.90
2019-04-29T06:48:11.062Z,99.90
2019-04-29T06:50:40.844Z,99.90
2019-04-29T06:53:16.470Z,99.90
2019-04-29T06:55:44.279Z,99.90
2019-04-29T06:58:13.693Z,99.90
2019-04-29T07:00:43.538Z,99.90
2019-04-29T07:03:12.889Z,99.90
2019-04-29T07:05:42.684Z,99.90
2019-04-29T07:08:13.692Z,99.90
2019-04-29T07:10:43.114Z,99.90
2019-04-29T07:13:12.915Z,99.90
2019-04-29T07:15:43.573Z,99.90
2019-04-29T07:18:18.398Z,99.90
2019-04-29T07:20:49.122Z,99.90
2019-04-29T07:23:19.245Z,99.90
2019-04-29T07:25:49.382Z,99.90
2019-04-29T07:28:19.612Z,99.90
2019-04-29T07:31:10.018Z,99.90
2019-04-29T07:33:24.632Z,99.90
2019-04-29T07:35:54.520Z,99.90
2019-04-29T07:38:24.717Z,99.90
2019-04-29T07:40:54.006Z,99.90
2019-04-29T07:43:23.793Z,99.90
2019-04-29T07:46:12.606Z,99.90
2019-04-29T07:48:43.770Z,99.90
2019-04-29T07:51:13.566Z,99.90
2019-04-29T07:53:45.377Z,99.90
2019-04-29T07:56:15.107Z,99.90
2019-04-29T07:58:44.848Z,99.90
2019-04-29T08:01:14.318Z,99.90
2019-04-29T08:03:43.893Z,99.90
2019-04-29T08:06:18.338Z,99.90
2019-04-29T08:08:55.054Z,99.90
2019-04-29T08:11:20.888Z,99.90
2019-04-29T08:13:51.709Z,99.90
2019-04-29T08:16:21.929Z,99.90
2019-04-29T08:18:53.564Z,99.90
2019-04-29T08:21:25.113Z,99.90
2019-04-29T08:24:37.218Z,99.90
2019-04-29T08:27:39.249Z,99.90
2019-04-29T08:29:42.010Z,99.90
2019-04-29T08:32:42.247Z,99.90
2019-04-29T08:35:15.577Z,99.90
2019-04-29T08:37:48.875Z,99.90
2019-04-29T08:40:22.923Z,99.90
2019-04-29T08:47:09.250Z,99.90
2019-04-29T08:49:45.201Z,99.90
2019-04-29T08:52:21.419Z,99.90
2019-04-29T08:55:19.299Z,99.90
2019-04-29T08:58:19.580Z,99.90
2019-04-29T09:00:55.832Z,99.90
2019-04-29T09:03:49.380Z,99.90
2019-04-29T09:06:19.604Z,99.90
2019-04-29T09:12:03.148Z,99.90
2019-04-29T09:14:30.192Z,99.90
2019-04-29T09:17:20.488Z,99.90
2019-04-29T09:19:46.864Z,99.90
2019-04-29T09:26:10.850Z,99.90
2019-04-29T09:28:50.904Z,99.90
2019-04-29T09:31:35.963Z,99.90
2019-04-29T09:34:07.093Z,99.90
2019-04-29T09:36:38.630Z,99.90
2019-04-29T09:39:21.335Z,99.90
2019-04-29T09:42:30.911Z,99.90
2019-04-29T09:48:34.471Z,99.90
2019-04-29T09:51:22.790Z,99.90
2019-04-29T09:53:59.161Z,99.90
2019-04-29T09:56:34.646Z,99.90
2019-04-29T09:59:24.467Z,97.00
2019-04-29T10:02:26.273Z,95.10
2019-04-29T10:05:10.007Z,99.90
2019-04-29T10:07:42.613Z,96.80
2019-04-29T10:10:14.174Z,99.90
2019-04-29T10:12:48.110Z,90.50
2019-04-29T10:15:19.651Z,97.90
2019-04-29T10:17:59.297Z,97.70
2019-04-29T10:20:41.893Z,95.20
2019-04-29T10:23:13.084Z,93.20
2019-04-29T10:25:42.554Z,94.20
2019-04-29T10:28:15.019Z,90.20
2019-04-29T10:30:45.571Z,87.10
2019-04-29T10:33:17.583Z,96.10
2019-04-29T10:35:50.394Z,91.30
2019-04-29T10:38:24.388Z,90.70
2019-04-29T10:41:06.860Z,94.10
2019-04-29T10:43:59.399Z,91.60
2019-04-29T10:47:00.432Z,76.70
2019-04-29T10:49:40.403Z,71.50
2019-04-29T10:52:11.290Z,78.40
2019-04-29T10:54:43.508Z,68.70
2019-04-29T10:57:20.575Z,72.70
2019-04-29T10:59:53.894Z,71.40
2019-04-29T11:02:40.863Z,60.00
2019-04-29T11:05:29.343Z,64.30
2019-04-29T11:08:15.070Z,61.70
2019-04-29T11:10:47.935Z,67.60
2019-04-29T11:13:27.348Z,62.90
2019-04-29T11:15:59.003Z,71.00
2019-04-29T11:18:31.068Z,77.70
2019-04-29T11:21:04.529Z,83.10
2019-04-29T11:23:42.618Z,91.70
2019-04-29T11:26:34.651Z,94.00
2019-04-29T11:29:07.412Z,97.40
2019-04-29T11:31:37.617Z,98.60
2019-04-29T11:35:01.555Z,99.50
2019-04-29T11:37:32.969Z,99.90
2019-04-29T11:40:09.920Z,99.90
2019-04-29T11:42:42.041Z,99.90
2019-04-29T11:45:13.766Z,99.90
2019-04-29T11:47:44.280Z,99.90
2019-04-29T11:50:27.164Z,99.90
2019-04-29T11:53:02.313Z,99.90
2019-04-29T11:55:38.883Z,99.90
2019-04-29T11:58:17.490Z,99.90
2019-04-29T12:01:08.463Z,99.90
2019-04-29T12:03:39.742Z,99.90
2019-04-29T12:06:16.348Z,99.90
2019-04-29T12:08:48.187Z,99.90
2019-04-29T12:11:24.047Z,99.90
2019-04-29T12:14:03.156Z,99.90
2019-04-29T12:16:41.284Z,99.90
2019-04-29T12:19:21.363Z,99.90
2019-04-29T12:21:55.091Z,99.90
2019-04-29T12:24:24.937Z,99.90
2019-04-29T12:26:56.009Z,99.90
2019-04-29T12:29:25.755Z,99.90
2019-04-29T12:32:32.522Z,99.90
2019-04-29T12:35:23.370Z,99.90
2019-04-29T12:38:24.767Z,99.90
2019-04-29T12:41:29.600Z,99.90
2019-04-29T12:44:05.948Z,99.90
2019-04-29T12:46:39.987Z,99.90
2019-04-29T12:49:15.117Z,99.90
2019-04-29T12:51:45.803Z,99.90
2019-04-29T12:54:15.994Z,99.90
2019-04-29T12:57:04.369Z,99.90
2019-04-29T12:59:37.253Z,99.90
2019-04-29T13:02:40.225Z,99.90
2019-04-29T13:05:26.243Z,99.90
2019-04-29T13:08:18.750Z,99.90
2019-04-29T13:10:51.771Z,99.90
2019-04-29T13:13:25.592Z,99.90
2019-04-29T13:16:20.158Z,99.90
2019-04-29T13:19:25.112Z,99.90
2019-04-29T13:22:17.684Z,99.90
2019-04-29T13:24:54.157Z,99.90
2019-04-29T13:27:32.341Z,99.90
2019-04-29T13:30:20.997Z,99.90
2019-04-29T13:32:53.303Z,99.90
2019-04-29T13:35:47.922Z,99.90
2019-04-29T13:38:13.168Z,99.90
2019-04-29T13:41:12.929Z,99.90
2019-04-29T13:43:39.993Z,99.90
2019-04-29T13:46:53.985Z,99.90
2019-04-29T13:50:16.901Z,99.90
2019-04-29T13:53:16.308Z,99.90
2019-04-29T13:55:50.106Z,99.90
2019-04-29T13:58:39.828Z,99.90
2019-04-29T14:02:01.201Z,99.90
2019-04-29T14:04:49.402Z,99.90
2019-04-29T14:07:31.676Z,99.90
2019-04-29T14:09:55.701Z,99.90
2019-04-29T14:15:49.005Z,99.90
2019-04-29T14:18:27.839Z,99.90
2019-04-29T14:21:18.402Z,99.90
2019-04-29T14:24:30.232Z,99.90
2019-04-29T14:31:43.560Z,99.90
2019-04-29T14:35:15.419Z,99.90
2019-04-29T14:35:16.184Z,99.90
2019-04-29T14:41:01.523Z,99.90
2019-04-29T14:47:19.755Z,99.90
2019-04-29T14:50:20.386Z,99.90
2019-04-29T14:53:32.267Z,99.90
2019-04-29T14:56:06.684Z,99.90
2019-04-29T14:58:45.476Z,99.90
2019-04-29T15:01:36.919Z,99.90
2019-04-29T15:04:17.945Z,99.90
2019-04-29T15:06:50.907Z,99.90
2019-04-29T15:09:26.337Z,99.90
2019-04-29T15:12:27.701Z,99.90
2019-04-29T15:15:48.061Z,99.90
2019-04-29T15:18:49.830Z,99.90
2019-04-29T15:21:46.510Z,99.90
2019-04-29T15:24:27.558Z,99.90
2019-04-29T15:27:39.104Z,99.90
2019-04-29T15:30:36.829Z,99.90
2019-04-29T15:33:11.866Z,99.90
2019-04-29T15:36:11.788Z,99.90
2019-04-29T15:39:08.502Z,99.90
2019-04-29T15:41:31.015Z,99.90
2019-04-29T15:44:07.539Z,99.90
2019-04-29T15:47:11.276Z,99.90
2019-04-29T15:50:00.820Z,99.90
2019-04-29T16:00:43.861Z,99.90
2019-04-29T16:03:43.983Z,99.90
2019-04-29T16:06:43.453Z,99.90
2019-04-29T16:09:52.137Z,99.90
2019-04-29T16:13:14.185Z,99.90
2019-04-29T16:18:20.570Z,99.90
2019-04-29T16:20:54.126Z,99.90
2019-04-29T16:24:01.661Z,99.90
2019-04-29T16:27:01.275Z,99.90
2019-04-29T16:29:40.632Z,99.90
2019-04-29T16:32:50.329Z,99.90
2019-04-29T16:35:30.556Z,99.90
2019-04-29T16:37:57.698Z,99.90
2019-04-29T16:41:12.572Z,99.90
2019-04-29T16:49:06.367Z,99.90
2019-04-29T16:51:37.561Z,99.90
2019-04-29T16:54:12.896Z,99.90
2019-04-29T16:57:28.972Z,99.90
2019-04-29T17:00:26.555Z,99.90
2019-04-29T17:03:13.958Z,99.90
2019-04-29T17:06:01.738Z,99.90
2019-04-29T17:09:02.909Z,99.90
2019-04-29T17:11:35.328Z,99.90
2019-04-29T17:14:32.018Z,99.90
2019-04-29T17:19:52.159Z,99.90
2019-04-29T17:22:25.904Z,99.90
2019-04-29T17:25:02.975Z,99.90
2019-04-29T17:27:48.419Z,99.90
2019-04-29T17:30:59.419Z,99.90
2019-04-29T17:33:41.371Z,99.90
2019-04-29T17:36:10.046Z,99.90
2019-04-29T17:41:49.049Z,99.90
2019-04-29T17:44:58.135Z,99.90
2019-04-29T17:47:42.606Z,99.90
2019-04-29T17:50:46.383Z,99.90
2019-04-29T17:53:42.175Z,99.90
2019-04-29T17:56:39.509Z,99.90
2019-04-29T17:59:29.548Z,99.90
2019-04-29T18:02:21.795Z,99.90
2019-04-29T18:05:11.961Z,99.90
2019-04-29T18:07:52.879Z,99.90
2019-04-29T18:10:45.850Z,99.90
2019-04-29T18:14:10.332Z,99.90
2019-04-29T18:16:50.892Z,99.90
2019-04-29T18:20:33.033Z,99.90
2019-04-29T18:23:56.785Z,99.90
2019-04-29T18:27:00.743Z,99.90
2019-04-29T18:29:28.215Z,99.90
2019-04-29T18:32:07.937Z,99.90
2019-04-29T18:38:20.231Z,99.90
2019-04-29T18:44:19.361Z,99.90
2019-04-29T18:49:31.808Z,99.90
2019-04-29T18:55:41.510Z,99.90
2019-04-29T19:07:52.522Z,99.90
2019-04-29T19:10:32.906Z,99.90
2019-04-29T19:16:21.560Z,99.90
2019-04-29T19:18:47.468Z,99.90
2019-04-29T19:21:17.403Z,99.90
2019-04-29T19:26:27.779Z,99.90
2019-04-29T19:32:18.887Z,99.90
2019-04-29T19:34:54.967Z,99.90
2019-04-29T19:37:32.085Z,99.90
2019-04-29T19:43:26.023Z,99.90
2019-04-29T19:48:41.054Z,99.90
2019-04-29T19:54:33.802Z,99.90
2019-04-29T19:57:46.738Z,99.90
2019-04-29T20:06:32.472Z,99.90
2019-04-29T20:09:17.608Z,99.90
2019-04-29T20:11:51.697Z,99.90
2019-04-29T20:17:48.878Z,99.90
2019-04-29T20:23:10.076Z,99.90
2019-04-29T20:29:27.332Z,99.90
2019-04-29T20:37:38.392Z,99.90
2019-04-29T20:40:06.342Z,99.90
2019-04-29T20:43:12.652Z,99.90
2019-04-29T20:54:57.775Z,99.90
2019-04-29T20:57:47.857Z,99.90
2019-04-29T21:04:30.522Z,99.90
2019-04-29T21:06:59.618Z,99.90
2019-04-29T21:10:31.823Z,99.90
2019-04-29T21:26:28.173Z,99.90
2019-04-29T21:55:51.818Z,99.90
2019-04-29T21:58:28.647Z,99.90
2019-04-29T22:02:11.461Z,99.90
2019-04-29T22:13:55.511Z,99.90
2019-04-29T22:28:40.749Z,99.90
2019-04-29T22:31:26.886Z,99.90
2019-04-29T22:33:59.604Z,99.90
2019-04-29T22:36:33.439Z,99.90
2019-04-29T22:39:35.722Z,99.90
2019-04-29T22:42:27.756Z,99.90
2019-04-29T22:45:01.438Z,99.90
2019-04-29T22:47:39.287Z,99.90
2019-04-29T22:50:25.481Z,99.90
2019-04-29T22:53:09.083Z,99.90
2019-04-29T22:58:59.686Z,99.90
2019-04-29T23:01:36.367Z,99.90
2019-04-29T23:05:11.874Z,99.90
2019-04-29T23:10:55.613Z,99.90
2019-04-29T23:13:55.303Z,99.90
2019-04-29T23:19:25.962Z,99.90
2019-04-29T23:22:26.220Z,99.90
2019-04-29T23:25:49.139Z,99.90
2019-04-29T23:28:28.586Z,99.90
2019-04-29T23:31:17.896Z,99.90
2019-04-29T23:34:02.953Z,99.90
2019-04-29T23:40:20.769Z,99.90
2019-04-29T23:46:17.836Z,99.90
2019-04-29T23:49:15.515Z,99.90
2019-04-29T23:51:48.779Z,99.90
2019-04-29T23:54:18.889Z,99.90
